Date,TemperatureHighF,TemperatureAvgF,TemperatureLowF,DewpointHighF,DewpointAvgF,DewpointLowF,HumidityHigh,HumidityAvg,HumidityLow,PressureMaxIn,PressureMinIn,WindSpeedMaxMPH,WindSpeedAvgMPH,GustSpeedMaxMPH,PrecipitationSumIn
2013-3-1,29.7,27.3,24.9,27.5,25.6,22.5,97,93,85,29.97,29.88,12,3,13,0.00
2013-3-2,24.9,21.7,18.8,22.9,19.3,16.7,95,90,79,30.02,29.92,13,3,14,0.00
2013-3-3,22.9,19.0,16.9,19.6,16.7,14.6,94,91,77,30.09,30.00,14,3,16,0.00
2013-3-4,36.9,28.5,17.5,22.7,14.8,10.6,93,58,34,30.23,30.08,16,2,16,0.02
2013-3-5,37.7,33.5,30.3,33.9,31.0,19.9,99,91,65,30.13,29.61,24,5,24,0.39
2013-3-6,30.2,25.3,22.6,29.7,24.2,20.9,98,95,92,30.20,29.66,12,2,15,0.00
2013-3-7,27.7,26.1,24.9,27.0,25.4,24.2,97,97,96,30.35,30.18,8,1,8,0.00
2013-3-8,38.4,29.7,25.3,28.0,24.9,22.8,97,83,61,30.43,30.31,14,2,15,0.16
2013-3-9,53.8,38.4,20.1,31.5,26.1,18.8,96,65,39,30.42,30.26,17,4,17,0.03
2013-3-10,60.7,48.8,40.0,37.0,31.8,28.0,63,52,37,30.26,30.07,24,9,27,0.00
2013-3-11,52.7,48.9,45.3,47.0,40.7,32.6,96,74,52,30.08,29.76,33,9,33,0.22
2013-3-12,48.9,36.5,27.7,47.2,34.1,25.9,99,91,75,30.03,29.75,18,3,18,0.30
2013-3-13,33.0,27.2,20.3,29.3,24.1,16.8,95,88,73,30.23,30.01,23,4,24,0.00
2013-3-14,35.7,25.6,17.8,18.8,15.7,12.0,93,68,44,30.35,30.22,20,4,20,0.02
2013-3-15,53.1,39.6,26.3,34.8,26.5,14.4,79,60,46,30.26,29.91,23,4,23,0.01
2013-3-16,66.5,54.0,40.4,51.8,44.6,33.1,93,71,49,29.92,29.62,28,6,28,0.22
2013-3-17,47.1,40.2,34.9,44.6,38.8,34.2,99,95,87,30.04,29.84,28,3,28,0.21
2013-3-18,35.5,32.3,29.9,35.5,31.8,29.3,100,98,96,30.05,29.86,33,12,33,0.16
2013-3-19,45.7,38.5,31.8,45.7,22.7,0.0,100,61,19,30.06,29.85,38,7,41,0.06
2013-3-20,42.1,32.4,24.5,27.1,14.0,6.6,95,49,27,30.07,29.83,28,5,28,0.00
2013-3-21,25.2,18.3,13.4,23.0,14.3,9.5,93,84,62,30.06,29.82,17,3,17,0.00
2013-3-22,38.1,23.7,11.3,19.8,12.8,6.4,87,65,42,30.16,30.05,14,2,15,0.05
2013-3-23,45.1,33.9,23.2,25.8,19.6,14.0,82,57,37,30.11,29.92,13,1,13,0.00
2013-3-24,34.4,31.3,29.2,29.9,25.7,19.2,98,82,55,29.95,29.47,28,8,28,0.00
2013-3-25,30.9,27.3,25.4,30.6,25.7,23.4,99,94,84,29.85,29.50,27,6,27,0.00
2013-3-26,31.7,28.4,25.9,28.3,26.2,24.9,96,91,83,30.20,29.94,19,4,19,0.03
2013-3-27,33.0,27.4,24.2,28.6,24.9,21.9,96,91,75,30.30,30.19,18,3,18,0.04
2013-3-28,39.9,31.7,25.2,26.6,24.1,21.8,96,75,51,30.34,30.26,16,3,16,0.20
2013-3-29,46.9,35.6,21.8,28.2,24.4,19.8,93,66,42,30.36,30.23,18,2,18,0.00
2013-3-30,55.0,41.3,27.3,34.0,28.5,25.5,95,64,36,30.27,30.05,14,1,14,0.00
2013-3-31,49.2,46.2,41.7,46.7,42.0,32.4,98,86,59,30.05,29.77,21,5,21,0.26